createdAt,value
2023-01-09T04:42:42.816Z,99669.28
2023-01-09T04:45:46.337Z,99669.28
2023-01-09T04:48:49.056Z,99664.53
2023-01-09T04:51:52.402Z,99675.13
2023-01-09T04:54:55.034Z,99663.63
2023-01-09T04:57:58.022Z,99671.84
2023-01-09T05:01:00.793Z,99669.31
2023-01-09T05:04:04.045Z,99660.84
2023-01-09T05:07:06.796Z,99658.16
2023-01-09T05:10:11.387Z,99663.59
2023-01-09T05:13:13.945Z,99652.28
2023-01-09T05:16:16.977Z,99654.91
2023-01-09T05:19:20.069Z,99656.41
2023-01-09T05:22:23.055Z,99647.69
2023-01-09T05:25:25.760Z,99654.69
2023-01-09T05:28:28.700Z,99654.69
2023-01-09T05:31:31.529Z,99640.63
2023-01-09T05:34:34.834Z,99638.66
2023-01-09T05:37:37.515Z,99638.78
2023-01-09T05:40:40.793Z,99636.31
2023-01-09T05:43:43.415Z,99640.41
2023-01-09T05:46:46.322Z,99635.03
2023-01-09T05:49:49.048Z,99630.03
2023-01-09T05:52:52.038Z,99630.16
2023-01-09T05:55:54.676Z,99631.84
2023-01-09T05:58:57.763Z,99636.16
2023-01-09T06:02:00.605Z,99646.50
2023-01-09T06:05:03.597Z,99651.37
2023-01-09T06:08:06.415Z,99639.50
2023-01-09T06:11:09.319Z,99636.59
2023-01-09T06:14:11.897Z,99630.19
2023-01-09T06:17:14.998Z,99635.22
2023-01-09T06:20:17.823Z,99636.09
2023-01-09T06:23:20.772Z,99638.94
2023-01-09T06:26:24.124Z,99643.44
2023-01-09T06:29:27.123Z,99651.28
2023-01-09T06:32:29.681Z,99656.56
2023-01-09T06:35:32.671Z,99657.59
2023-01-09T06:38:35.544Z,99655.38
2023-01-09T06:41:38.305Z,99664.81
2023-01-09T06:44:40.938Z,99672.19
2023-01-09T06:47:43.878Z,99669.47
2023-01-09T06:50:48.506Z,99667.38
2023-01-09T06:53:51.495Z,99665.94
2023-01-09T06:56:54.188Z,99673.19
2023-01-09T06:59:57.201Z,99677.50
2023-01-09T07:03:00.532Z,99664.69
2023-01-09T07:06:04.078Z,99661.41
2023-01-09T07:09:06.754Z,99666.25
2023-01-09T07:12:09.791Z,99664.34
2023-01-09T07:15:12.434Z,99652.94
2023-01-09T07:18:15.560Z,99663.84
2023-01-09T07:21:18.303Z,99663.00
2023-01-09T07:24:21.260Z,99657.00
2023-01-09T07:27:23.950Z,99657.63
2023-01-09T07:30:26.898Z,99656.84
2023-01-09T07:33:29.613Z,99660.88
2023-01-09T07:36:32.595Z,99652.31
2023-01-09T07:39:35.361Z,99653.28
2023-01-09T07:42:38.408Z,99654.56
2023-01-09T07:45:41.077Z,99641.16
2023-01-09T07:48:44.208Z,99627.72
2023-01-09T07:51:48.320Z,99645.91
2023-01-09T07:54:51.242Z,99643.13
2023-01-09T07:57:53.897Z,99639.16
2023-01-09T08:00:56.973Z,99641.78
2023-01-09T08:03:59.793Z,99636.28
2023-01-09T08:07:03.470Z,99632.59
2023-01-09T08:10:06.766Z,99635.25
2023-01-09T08:13:09.524Z,99635.13
2023-01-09T08:16:12.608Z,99629.25
2023-01-09T08:19:15.368Z,99628.16
2023-01-09T08:22:18.302Z,99631.00
2023-01-09T08:25:21.175Z,99617.09
2023-01-09T08:28:24.505Z,99617.97
2023-01-09T08:31:28.366Z,99614.78
2023-01-09T08:34:32.327Z,99624.41
2023-01-09T08:37:35.128Z,99641.78
2023-01-09T08:40:38.246Z,99656.16
2023-01-09T08:43:59.569Z,99618.69
2023-01-09T08:47:05.394Z,99620.84
2023-01-09T08:50:08.513Z,99636.88
2023-01-09T08:53:12.144Z,99633.94
2023-01-09T08:56:14.637Z,99647.06
2023-01-09T08:59:17.877Z,99639.56
2023-01-09T09:02:21.158Z,99644.91
2023-01-09T09:05:25.693Z,99647.62
2023-01-09T09:08:28.652Z,99638.69
2023-01-09T09:11:31.593Z,99618.34
2023-01-09T09:14:52.745Z,99625.13
2023-01-09T09:18:13.823Z,99607.88
2023-01-09T09:21:16.547Z,99605.28
2023-01-09T09:24:19.683Z,99604.47
2023-01-09T09:27:22.435Z,99604.28
2023-01-09T09:30:26.188Z,99599.31
2023-01-09T09:33:30.384Z,99603.63
2023-01-09T09:36:33.519Z,99586.81
2023-01-09T09:39:36.318Z,99584.88
2023-01-09T09:43:28.202Z,99586.56
2023-01-09T09:46:42.707Z,99582.13
2023-01-09T09:49:56.243Z,99575.59
2023-01-09T09:53:23.526Z,99577.16
2023-01-09T09:56:29.060Z,99572.84
2023-01-09T09:59:34.711Z,99554.81
2023-01-09T10:02:46.113Z,99563.56
2023-01-09T10:05:51.862Z,99577.03
2023-01-09T10:09:17.498Z,99571.00
2023-01-09T10:12:30.746Z,99566.56
2023-01-09T10:15:46.437Z,99562.75
2023-01-09T10:19:02.877Z,99560.31
2023-01-09T10:22:50.721Z,99554.75
2023-01-09T10:26:02.552Z,99568.34
2023-01-09T10:29:08.204Z,99552.59
2023-01-09T10:32:43.781Z,99545.78
2023-01-09T10:36:05.629Z,99552.37
2023-01-09T10:39:32.496Z,99530.50
2023-01-09T10:42:41.092Z,99531.59
2023-01-09T10:45:54.573Z,99534.22
2023-01-09T10:49:05.355Z,99525.47
2023-01-09T10:52:19.367Z,99521.94
2023-01-09T10:55:42.215Z,99521.75
2023-01-09T10:58:45.129Z,99530.75
2023-01-09T11:01:48.300Z,99512.41
2023-01-09T11:04:51.696Z,99505.53
2023-01-09T11:07:57.065Z,99507.94
2023-01-09T11:11:02.140Z,99496.56
2023-01-09T11:14:17.688Z,99486.72
2023-01-09T11:17:25.836Z,99484.22
2023-01-09T11:20:30.163Z,99478.16
2023-01-09T11:23:33.726Z,99470.19
2023-01-09T11:26:36.222Z,99471.16
2023-01-09T11:29:42.545Z,99475.41
2023-01-09T11:32:47.543Z,99475.41
2023-01-09T11:36:04.187Z,99470.44
2023-01-09T11:39:41.292Z,99465.66
2023-01-09T11:43:03.181Z,99473.72
2023-01-09T11:46:08.159Z,99467.69
2023-01-09T11:49:19.920Z,99468.63
2023-01-09T11:52:22.579Z,99460.13
2023-01-09T11:55:34.691Z,99460.66
2023-01-09T11:58:40.829Z,99452.41
2023-01-09T12:02:15.106Z,99460.09
2023-01-09T12:05:49.472Z,99461.63
2023-01-09T12:09:06.827Z,99451.34
2023-01-09T12:12:30.859Z,99444.34
2023-01-09T12:16:04.163Z,99439.88
2023-01-09T12:19:18.496Z,99431.31
2023-01-09T12:22:48.734Z,99431.94
2023-01-09T12:26:23.710Z,99431.59
2023-01-09T12:29:45.391Z,99441.91
2023-01-09T12:33:07.468Z,99437.87
2023-01-09T12:36:20.226Z,99432.00
2023-01-09T12:39:23.388Z,99430.31
2023-01-09T12:43:00.078Z,99424.47
2023-01-09T12:46:16.474Z,99419.38
2023-01-09T12:49:35.147Z,99417.09
2023-01-09T12:52:46.559Z,99403.94
2023-01-09T12:56:20.181Z,99401.09
2023-01-09T12:59:44.959Z,99402.72
2023-01-09T13:03:11.285Z,99397.84
2023-01-09T13:06:18.829Z,99386.41
2023-01-09T13:09:21.427Z,99394.09
2023-01-09T13:12:28.094Z,99392.53
2023-01-09T13:15:42.388Z,99393.38
2023-01-09T13:19:01.184Z,99391.84
2023-01-09T13:22:05.386Z,99385.00
2023-01-09T13:25:41.756Z,99381.22
2023-01-09T13:29:00.729Z,99381.94
2023-01-09T13:32:10.371Z,99383.78
2023-01-09T13:35:14.813Z,99380.38
2023-01-09T13:38:27.529Z,99390.94
2023-01-09T13:41:50.276Z,99396.06
2023-01-09T13:44:56.593Z,99389.28
2023-01-09T13:48:12.057Z,99395.84
2023-01-09T13:51:36.628Z,99394.78
2023-01-09T13:54:50.345Z,99389.28
2023-01-09T13:58:05.669Z,99386.44
2023-01-09T14:01:38.247Z,99401.13
2023-01-09T14:04:44.073Z,99394.91
2023-01-09T14:08:01.219Z,99397.75
2023-01-09T14:11:06.508Z,99407.06
2023-01-09T14:14:33.056Z,99409.69
2023-01-09T14:17:38.292Z,99409.78
2023-01-09T14:20:47.360Z,99399.34
2023-01-09T14:24:07.366Z,99390.19
2023-01-09T14:27:47.939Z,99399.53
2023-01-09T14:30:53.652Z,99400.41
2023-01-09T14:34:31.517Z,99394.28
2023-01-09T14:37:37.868Z,99397.13
2023-01-09T14:40:49.193Z,99395.50
2023-01-09T14:44:01.194Z,99400.88
2023-01-09T14:47:15.920Z,99391.19
2023-01-09T14:50:27.694Z,99378.03
2023-01-09T14:53:34.480Z,99380.88
2023-01-09T14:56:46.797Z,99385.16
2023-01-09T15:00:03.081Z,99380.16
2023-01-09T15:03:09.747Z,99384.69
2023-01-09T15:06:20.112Z,99397.16
2023-01-09T15:09:23.160Z,99388.75
2023-01-09T15:12:26.253Z,99392.97
2023-01-09T15:15:29.318Z,99391.16
2023-01-09T15:18:40.592Z,99389.16
2023-01-09T15:21:59.104Z,99386.81
2023-01-09T15:25:22.791Z,99389.38
2023-01-09T15:28:34.218Z,99392.28
2023-01-09T15:31:41.383Z,99399.22
2023-01-09T15:34:49.100Z,99401.78
2023-01-09T15:37:54.603Z,99397.16
2023-01-09T15:40:59.468Z,99404.31
2023-01-09T15:44:05.077Z,99401.31
2023-01-09T15:47:15.678Z,99402.97
2023-01-09T15:50:22.475Z,99401.81
2023-01-09T15:53:28.204Z,99388.12
2023-01-09T15:56:30.846Z,99386.81
2023-01-09T15:59:33.751Z,99383.19
2023-01-09T16:02:54.977Z,99384.97
2023-01-09T16:06:08.731Z,99371.91
2023-01-09T16:09:29.231Z,99365.81
2023-01-09T16:12:33.488Z,99364.06
2023-01-09T16:15:36.130Z,99356.28
2023-01-09T16:18:49.416Z,99350.88
2023-01-09T16:21:57.931Z,99346.56
2023-01-09T16:25:21.879Z,99341.84
2023-01-09T16:28:28.313Z,99345.44
2023-01-09T16:31:33.439Z,99343.78
2023-01-09T16:34:36.576Z,99352.44
2023-01-09T16:37:40.210Z,99348.06
2023-01-09T16:41:25.064Z,99351.59
2023-01-09T16:44:27.995Z,99339.28
